Time;durP1;ratioP1;P1;durP2;ratioP2;P2;SDS_P1;SDS_P2;PMS_P1;PMS_P2;Temp;Humidity;BMP_temperature;BMP_pressure;BME280_temperature;BME280_humidity;BME280_pressure;Samples;Min_cycle;Max_cycle;Signal;HPM_P1;HPM_P2
2022/12/11 00:00:30;;;;;;;27.77;16.02;;;1.30;99.90;;;;;;5146236;27;20185;-81
2022/12/11 00:02:57;;;;;;;27.25;16.88;;;1.30;99.90;;;;;;5142320;27;20247;-81
2022/12/11 00:05:24;;;;;;;22.70;14.73;;;1.40;99.90;;;;;;5133889;27;20217;-81
2022/12/11 00:07:51;;;;;;;21.95;16.23;;;1.30;99.90;;;;;;5142105;27;20201;-81
2022/12/11 00:10:19;;;;;;;26.80;15.20;;;1.30;99.90;;;;;;5130970;27;20256;-82
2022/12/11 00:12:46;;;;;;;24.88;15.93;;;1.30;99.90;;;;;;5136504;27;20252;-81
2022/12/11 00:15:13;;;;;;;27.10;18.63;;;1.20;99.90;;;;;;5144208;27;20204;-82
2022/12/11 00:17:41;;;;;;;28.23;16.40;;;1.20;99.90;;;;;;5131289;27;20193;-81
2022/12/11 00:20:09;;;;;;;25.98;16.33;;;1.20;99.90;;;;;;5130132;28;20202;-82
2022/12/11 00:22:36;;;;;;;25.60;16.27;;;1.20;99.90;;;;;;5122288;27;20185;-81
2022/12/11 00:25:04;;;;;;;25.35;16.92;;;1.30;99.90;;;;;;5128197;27;20190;-81
2022/12/11 00:27:31;;;;;;;26.92;17.40;;;1.30;99.90;;;;;;5139826;27;20178;-80
2022/12/11 00:29:57;;;;;;;27.15;16.70;;;1.30;99.90;;;;;;5130552;27;20198;-81
2022/12/11 00:32:24;;;;;;;28.98;17.08;;;1.40;99.90;;;;;;5132199;27;20215;-81
2022/12/11 00:34:53;;;;;;;27.13;18.00;;;1.40;99.90;;;;;;5123211;27;20448;-81
2022/12/11 00:37:19;;;;;;;27.20;19.00;;;1.40;99.90;;;;;;5124386;27;20193;-80
2022/12/11 00:39:46;;;;;;;22.33;16.13;;;1.40;99.90;;;;;;5140859;27;20211;-81
2022/12/11 00:42:13;;;;;;;23.95;16.90;;;1.50;99.90;;;;;;5128979;27;20178;-81
2022/12/11 00:44:42;;;;;;;26.42;16.15;;;1.50;99.90;;;;;;5133071;27;20224;-81
2022/12/11 00:47:09;;;;;;;27.17;16.83;;;1.50;99.90;;;;;;5137135;27;20205;-82
2022/12/11 00:49:36;;;;;;;27.85;16.13;;;1.40;99.90;;;;;;5137060;27;20194;-80
2022/12/11 00:52:04;;;;;;;24.65;16.23;;;1.50;99.90;;;;;;5122007;28;20212;-82
2022/12/11 00:54:31;;;;;;;27.50;16.95;;;1.40;99.90;;;;;;5132855;27;20237;-82
2022/12/11 00:56:59;;;;;;;24.15;16.35;;;1.50;99.90;;;;;;5131741;27;20352;-81
2022/12/11 00:59:34;;;;;;;32.47;18.10;;;1.40;99.90;;;;;;5138782;27;20352;-81
2022/12/11 01:02:01;;;;;;;26.33;15.63;;;1.40;99.90;;;;;;5134125;27;20173;-81
2022/12/11 01:04:36;;;;;;;23.88;16.65;;;1.40;99.90;;;;;;5133362;27;20485;-81
2022/12/11 01:07:06;;;;;;;28.58;16.95;;;1.60;99.90;;;;;;5138585;27;20227;-82
2022/12/11 01:12:17;;;;;;;24.05;15.23;;;1.60;99.90;;;;;;5141995;27;20208;-81
2022/12/11 01:14:44;;;;;;;25.45;16.58;;;1.60;99.90;;;;;;5142174;27;20216;-81
2022/12/11 01:17:13;;;;;;;23.75;14.65;;;1.50;99.90;;;;;;5128673;28;20178;-82
2022/12/11 01:19:40;;;;;;;29.77;16.60;;;1.50;99.90;;;;;;5143267;27;20204;-82
2022/12/11 01:22:08;;;;;;;26.88;17.40;;;1.40;99.90;;;;;;5140629;27;20174;-79
2022/12/11 01:24:36;;;;;;;27.30;17.30;;;1.50;99.90;;;;;;5136557;27;20226;-82
2022/12/11 01:27:04;;;;;;;26.40;18.00;;;1.50;99.90;;;;;;5142068;27;20269;-81
2022/12/11 01:29:31;;;;;;;33.67;19.02;;;1.50;99.90;;;;;;5137676;27;20257;-82
2022/12/11 01:31:57;;;;;;;24.40;15.73;;;1.50;99.90;;;;;;5137101;27;20240;-82
2022/12/11 01:34:24;;;;;;;24.73;16.55;;;1.50;99.90;;;;;;5130641;27;20229;-83
2022/12/11 01:36:53;;;;;;;24.90;16.02;;;1.50;99.90;;;;;;5115203;28;20489;-82
2022/12/11 01:39:21;;;;;;;20.88;14.63;;;1.40;99.90;;;;;;5136906;27;20245;-81
2022/12/11 01:41:48;;;;;;;28.27;18.20;;;1.50;99.90;;;;;;5133258;27;20186;-82
2022/12/11 01:44:48;;;;;;;27.75;17.58;;;1.40;99.90;;;;;;5141604;27;20201;-82
2022/12/11 01:47:15;;;;;;;23.65;15.15;;;1.40;99.90;;;;;;5137245;27;20313;-82
2022/12/11 01:49:42;;;;;;;26.70;15.73;;;1.50;99.90;;;;;;5145615;27;20207;-81
2022/12/11 01:52:15;;;;;;;26.98;16.65;;;1.70;99.90;;;;;;5138179;27;20221;-83
2022/12/11 01:54:44;;;;;;;26.63;17.52;;;1.50;99.90;;;;;;5121993;27;20230;-83
2022/12/11 01:57:14;;;;;;;25.63;16.15;;;1.50;99.90;;;;;;5113747;27;20237;-82
2022/12/11 01:59:44;;;;;;;22.38;15.65;;;1.60;99.90;;;;;;5127447;27;20385;-82
2022/12/11 02:02:18;;;;;;;26.48;16.40;;;1.50;99.90;;;;;;5128855;27;20301;-82
2022/12/11 02:04:47;;;;;;;22.80;15.93;;;1.50;99.90;;;;;;5130335;27;20204;-81
2022/12/11 02:07:14;;;;;;;23.35;15.00;;;1.50;99.90;;;;;;5129369;27;20206;-80
2022/12/11 02:09:46;;;;;;;21.20;14.48;;;1.50;99.90;;;;;;5131432;27;20201;-83
2022/12/11 02:12:22;;;;;;;25.75;17.02;;;1.40;99.90;;;;;;5130435;27;20231;-82
2022/12/11 02:14:56;;;;;;;29.38;18.00;;;1.50;99.90;;;;;;5134585;27;20203;-81
2022/12/11 02:17:29;;;;;;;28.92;17.50;;;1.50;99.90;;;;;;5139935;27;20206;-81
2022/12/11 02:20:03;;;;;;;23.77;16.17;;;1.50;99.90;;;;;;5129936;27;20182;-82
2022/12/11 02:22:53;;;;;;;22.27;15.98;;;1.50;99.90;;;;;;5140877;27;20367;-81
2022/12/11 02:25:27;;;;;;;28.88;16.50;;;1.40;99.90;;;;;;5129412;27;20422;-81
2022/12/11 02:28:06;;;;;;;25.95;16.48;;;1.40;99.90;;;;;;5143908;28;20198;-82
2022/12/11 02:30:37;;;;;;;22.65;15.45;;;1.40;99.90;;;;;;5136598;28;20201;-81
2022/12/11 02:33:05;;;;;;;25.27;16.73;;;1.40;99.90;;;;;;5127314;28;20217;-82
2022/12/11 02:35:39;;;;;;;24.30;16.75;;;1.40;99.90;;;;;;5137937;28;20192;-82
2022/12/11 02:38:10;;;;;;;22.95;16.83;;;1.40;99.90;;;;;;5132915;28;20188;-82
2022/12/11 02:40:40;;;;;;;28.90;17.45;;;1.50;99.90;;;;;;5142918;27;20196;-82
2022/12/11 02:43:13;;;;;;;21.50;15.55;;;1.40;99.90;;;;;;5138646;27;20208;-82
2022/12/11 02:45:43;;;;;;;28.98;17.65;;;1.40;99.90;;;;;;5144483;27;20236;-82
2022/12/11 02:48:13;;;;;;;30.83;17.23;;;1.40;99.90;;;;;;5132633;27;20212;-82
2022/12/11 02:50:44;;;;;;;26.08;17.02;;;1.30;99.90;;;;;;5133236;27;20179;-83
2022/12/11 02:53:12;;;;;;;22.83;15.27;;;1.20;99.90;;;;;;5140006;27;20248;-83
2022/12/11 02:55:42;;;;;;;27.27;17.67;;;1.20;99.90;;;;;;5137388;27;20190;-82
2022/12/11 02:58:16;;;;;;;31.85;18.25;;;1.20;99.90;;;;;;5144405;27;20419;-81
2022/12/11 03:00:44;;;;;;;25.23;17.15;;;1.20;99.90;;;;;;5142383;27;20310;-83
2022/12/11 03:03:13;;;;;;;25.50;15.63;;;1.20;99.90;;;;;;5142888;27;20228;-82
2022/12/11 03:05:41;;;;;;;27.73;16.15;;;1.10;99.90;;;;;;5149117;27;20190;-81
2022/12/11 03:08:09;;;;;;;26.90;16.92;;;1.20;99.90;;;;;;5131327;28;20236;-82
2022/12/11 03:10:37;;;;;;;20.90;14.52;;;1.20;99.90;;;;;;5147161;27;20177;-80
2022/12/11 03:13:05;;;;;;;28.73;16.10;;;1.20;99.90;;;;;;5136009;27;20213;-82
2022/12/11 03:15:40;;;;;;;29.83;17.30;;;1.30;99.90;;;;;;5139829;27;20245;-81
2022/12/11 03:18:15;;;;;;;23.50;15.73;;;1.30;99.90;;;;;;5143441;27;20185;-81
2022/12/11 03:20:45;;;;;;;27.15;16.83;;;1.20;99.90;;;;;;5138007;27;20234;-82
2022/12/11 03:23:20;;;;;;;23.88;15.75;;;1.20;99.90;;;;;;5132685;27;20210;-81
2022/12/11 03:25:54;;;;;;;25.13;16.40;;;1.20;99.90;;;;;;5146646;27;20194;-81
2022/12/11 03:28:27;;;;;;;25.52;15.88;;;1.10;99.90;;;;;;5132926;27;20398;-80
2022/12/11 03:30:56;;;;;;;23.70;16.63;;;1.10;99.90;;;;;;5131014;27;20261;-81
2022/12/11 03:33:27;;;;;;;31.75;20.08;;;1.10;99.90;;;;;;5141688;27;20236;-82
2022/12/11 03:35:57;;;;;;;28.25;17.27;;;1.10;99.90;;;;;;5129321;27;20248;-82
2022/12/11 03:38:27;;;;;;;24.75;15.30;;;1.20;99.90;;;;;;5144219;27;20208;-82
2022/12/11 03:40:57;;;;;;;25.20;17.70;;;1.20;99.90;;;;;;5129124;27;20192;-82
2022/12/11 03:43:26;;;;;;;28.08;18.65;;;1.20;99.90;;;;;;5133028;27;20212;-82
2022/12/11 03:45:55;;;;;;;23.17;16.27;;;1.00;99.90;;;;;;5140222;27;20400;-83
2022/12/11 03:48:25;;;;;;;27.25;18.00;;;1.20;99.90;;;;;;5136196;27;20395;-82
2022/12/11 03:50:53;;;;;;;26.20;15.88;;;1.20;99.90;;;;;;5136930;27;20178;-81
2022/12/11 03:53:21;;;;;;;28.45;17.42;;;1.10;99.90;;;;;;5131936;27;20222;-82
2022/12/11 03:55:49;;;;;;;24.70;16.60;;;1.10;99.90;;;;;;5139656;27;20192;-81
2022/12/11 03:58:18;;;;;;;27.55;17.75;;;1.10;99.90;;;;;;5134395;27;20182;-81
2022/12/11 04:00:45;;;;;;;25.25;16.48;;;1.10;99.90;;;;;;5140646;27;20208;-82
2022/12/11 04:03:14;;;;;;;25.70;16.63;;;1.20;99.90;;;;;;5144371;27;20197;-81
2022/12/11 04:05:42;;;;;;;22.70;16.15;;;1.10;99.90;;;;;;5133493;27;20261;-82
2022/12/11 04:08:10;;;;;;;24.67;15.68;;;1.10;99.90;;;;;;5132126;27;20362;-82
2022/12/11 04:10:37;;;;;;;24.55;16.92;;;1.10;99.90;;;;;;5141397;27;20236;-83
2022/12/11 04:13:04;;;;;;;25.27;16.65;;;1.10;99.90;;;;;;5137468;27;20248;-82
2022/12/11 04:15:30;;;;;;;28.33;17.80;;;1.10;99.90;;;;;;5139078;27;20248;-82
2022/12/11 04:26:15;;;;;;;27.00;16.70;;;1.10;99.90;;;;;;5113858;28;20214;-83
2022/12/11 04:28:43;;;;;;;28.10;16.85;;;1.10;99.90;;;;;;5121817;27;20213;-82
2022/12/11 04:31:11;;;;;;;24.92;18.05;;;1.10;99.90;;;;;;5147267;27;20189;-82
2022/12/11 04:33:38;;;;;;;25.20;16.77;;;1.10;99.90;;;;;;5133996;27;20286;-82
2022/12/11 04:36:08;;;;;;;21.35;15.38;;;1.10;99.90;;;;;;5133849;27;20201;-80
2022/12/11 04:38:34;;;;;;;30.70;18.20;;;1.10;99.90;;;;;;5135040;27;20199;-81
2022/12/11 04:41:04;;;;;;;25.05;15.90;;;1.20;99.90;;;;;;5133580;27;20219;-83
2022/12/11 04:43:31;;;;;;;24.60;16.48;;;1.10;99.90;;;;;;5131731;27;20232;-83
2022/12/11 04:46:02;;;;;;;26.83;15.70;;;1.10;99.90;;;;;;5132182;27;20214;-83
2022/12/11 04:48:29;;;;;;;26.70;15.07;;;1.10;99.90;;;;;;5141753;27;20191;-82
2022/12/11 04:50:57;;;;;;;31.92;17.00;;;1.20;99.90;;;;;;5141565;27;20476;-82
2022/12/11 04:53:26;;;;;;;26.00;16.45;;;1.30;99.90;;;;;;5132998;27;20229;-81
2022/12/11 04:55:53;;;;;;;27.70;16.10;;;1.20;99.90;;;;;;5126131;27;20239;-82
2022/12/11 04:58:20;;;;;;;29.52;18.02;;;1.20;99.90;;;;;;5127195;27;20257;-82
2022/12/11 05:00:47;;;;;;;26.52;17.08;;;1.20;99.90;;;;;;5128603;27;20196;-83
2022/12/11 05:03:14;;;;;;;28.02;16.42;;;1.10;99.90;;;;;;5117756;28;20456;-81
2022/12/11 05:05:41;;;;;;;26.48;17.55;;;1.30;99.90;;;;;;5139537;27;20181;-83
2022/12/11 05:08:08;;;;;;;23.67;16.00;;;1.10;99.90;;;;;;5132766;27;20436;-82
2022/12/11 05:10:36;;;;;;;26.48;15.95;;;1.30;99.90;;;;;;5128546;27;20178;-81
2022/12/11 05:13:03;;;;;;;24.73;15.98;;;1.10;99.90;;;;;;5119995;28;20395;-81
2022/12/11 05:15:30;;;;;;;25.58;16.77;;;1.20;99.90;;;;;;5123375;27;20190;-81
2022/12/11 05:17:59;;;;;;;35.95;15.88;;;1.10;99.90;;;;;;5132415;27;20400;-81
2022/12/11 05:20:26;;;;;;;28.73;16.23;;;1.10;99.90;;;;;;5146109;27;20185;-81
2022/12/11 05:22:53;;;;;;;28.10;16.90;;;1.10;99.90;;;;;;5140277;27;20201;-81
2022/12/11 05:25:20;;;;;;;24.20;16.42;;;1.20;99.90;;;;;;5140576;27;20216;-81
2022/12/11 05:27:48;;;;;;;26.88;16.75;;;1.10;99.90;;;;;;5136876;27;20216;-82
2022/12/11 05:30:15;;;;;;;24.08;16.00;;;1.10;99.90;;;;;;5120652;27;20232;-82
2022/12/11 05:32:42;;;;;;;27.70;16.23;;;1.10;99.90;;;;;;5145365;27;20198;-82
2022/12/11 05:35:09;;;;;;;26.50;16.95;;;1.10;99.90;;;;;;5134728;27;20185;-82
2022/12/11 05:37:36;;;;;;;21.40;15.75;;;1.20;99.90;;;;;;5133518;27;20185;-81
2022/12/11 05:40:05;;;;;;;27.27;17.02;;;1.20;99.90;;;;;;5134791;27;20400;-82
2022/12/11 05:42:32;;;;;;;23.73;15.18;;;1.10;99.90;;;;;;5127190;27;20204;-81
2022/12/11 05:45:01;;;;;;;25.20;15.57;;;1.30;99.90;;;;;;5138556;27;20208;-81
2022/12/11 05:47:28;;;;;;;23.95;16.05;;;1.10;99.90;;;;;;5118043;28;20178;-82
2022/12/11 05:49:55;;;;;;;28.23;17.92;;;1.10;99.90;;;;;;5139916;27;20354;-82
2022/12/11 05:52:23;;;;;;;24.60;16.17;;;1.10;99.90;;;;;;5135414;27;20455;-82
2022/12/11 05:54:50;;;;;;;26.23;15.68;;;1.10;99.90;;;;;;5138421;27;20201;-82
2022/12/11 05:57:17;;;;;;;26.58;16.00;;;1.10;99.90;;;;;;5140554;27;20412;-82
2022/12/11 05:59:44;;;;;;;24.50;16.45;;;1.00;99.90;;;;;;5141413;27;20459;-81
2022/12/11 06:02:13;;;;;;;24.88;16.25;;;1.10;99.90;;;;;;5140175;27;20388;-82
2022/12/11 06:04:39;;;;;;;24.92;14.23;;;1.10;99.90;;;;;;5112653;28;20222;-82
2022/12/11 06:07:07;;;;;;;26.88;15.98;;;1.10;99.90;;;;;;5127191;27;20215;-83
2022/12/11 06:09:34;;;;;;;24.35;15.70;;;1.20;99.90;;;;;;5141814;27;20217;-81
2022/12/11 06:12:00;;;;;;;24.08;16.23;;;1.10;99.90;;;;;;5132060;27;20352;-82
2022/12/11 06:14:27;;;;;;;26.95;17.38;;;1.10;99.90;;;;;;5142724;27;20241;-81
2022/12/11 06:16:54;;;;;;;26.63;16.88;;;1.20;99.90;;;;;;5135541;27;20228;-80
2022/12/11 06:19:23;;;;;;;23.90;16.52;;;1.20;99.90;;;;;;5141377;27;20192;-82
2022/12/11 06:21:50;;;;;;;25.70;16.95;;;1.20;99.90;;;;;;5124919;27;20193;-81
2022/12/11 06:24:17;;;;;;;23.58;14.85;;;1.30;99.90;;;;;;5141093;27;20208;-81
2022/12/11 06:26:43;;;;;;;25.20;14.90;;;1.30;99.90;;;;;;5135115;28;20416;-82
2022/12/11 06:29:11;;;;;;;23.40;16.35;;;1.30;99.90;;;;;;5136831;28;20205;-81
2022/12/11 06:31:38;;;;;;;28.73;16.23;;;1.20;99.90;;;;;;5137858;28;20191;-81
2022/12/11 06:34:05;;;;;;;23.42;14.60;;;1.20;99.90;;;;;;5135626;28;20251;-81
2022/12/11 06:36:33;;;;;;;21.60;14.35;;;1.20;99.90;;;;;;5129690;28;20182;-81
2022/12/11 06:39:00;;;;;;;24.58;15.65;;;1.20;99.90;;;;;;5138838;28;20184;-82
2022/12/11 06:41:27;;;;;;;21.52;14.15;;;1.20;99.90;;;;;;5133242;28;20213;-83
2022/12/11 06:43:54;;;;;;;25.08;15.32;;;1.10;99.90;;;;;;5140590;28;20210;-82
2022/12/11 06:46:21;;;;;;;26.52;15.68;;;1.10;99.90;;;;;;5134368;28;20208;-82
2022/12/11 06:48:49;;;;;;;22.13;14.85;;;1.20;99.90;;;;;;5134991;28;20206;-83
2022/12/11 06:51:18;;;;;;;24.98;16.55;;;1.10;99.90;;;;;;5141590;28;20212;-82
2022/12/11 06:53:50;;;;;;;23.75;15.07;;;1.20;99.90;;;;;;5131909;28;20221;-82
2022/12/11 06:56:17;;;;;;;27.83;16.05;;;1.20;99.90;;;;;;5123388;28;20249;-82
2022/12/11 06:58:44;;;;;;;25.00;15.55;;;1.20;99.90;;;;;;5140953;28;20188;-82
2022/12/11 07:01:17;;;;;;;24.92;15.63;;;1.20;99.90;;;;;;5133724;28;20250;-82
2022/12/11 07:03:45;;;;;;;20.88;14.68;;;1.20;99.90;;;;;;5143885;28;20227;-86
2022/12/11 07:06:12;;;;;;;27.60;15.88;;;0.90;99.90;;;;;;5139476;28;20234;-83
2022/12/11 07:08:39;;;;;;;22.20;15.13;;;1.10;99.90;;;;;;5121562;28;20190;-82
2022/12/11 07:11:11;;;;;;;24.98;16.42;;;1.10;99.90;;;;;;5139961;28;20181;-82
2022/12/11 07:13:39;;;;;;;26.30;14.93;;;1.10;99.90;;;;;;5126658;28;20217;-82
2022/12/11 07:16:09;;;;;;;24.65;15.32;;;1.00;99.90;;;;;;5135902;28;20186;-82
2022/12/11 07:18:36;;;;;;;22.75;14.05;;;1.00;99.90;;;;;;5133760;28;20206;-82
2022/12/11 07:21:03;;;;;;;27.80;17.88;;;0.90;99.90;;;;;;5133831;28;20178;-82
2022/12/11 07:23:31;;;;;;;22.88;14.52;;;1.00;99.90;;;;;;5132079;28;20195;-81
2022/12/11 07:25:58;;;;;;;24.58;15.07;;;1.00;99.90;;;;;;5133179;28;20201;-82
2022/12/11 07:28:27;;;;;;;29.88;17.50;;;1.10;99.90;;;;;;5134634;27;20185;-82
2022/12/11 07:30:54;;;;;;;24.13;16.15;;;1.10;99.90;;;;;;5124816;27;20190;-83
2022/12/11 07:33:20;;;;;;;26.42;15.43;;;1.10;99.90;;;;;;5134449;27;20242;-82
2022/12/11 07:35:47;;;;;;;25.08;14.85;;;1.10;99.90;;;;;;5136918;27;20230;-81
2022/12/11 07:38:14;;;;;;;29.10;16.65;;;1.10;99.90;;;;;;5137602;27;20178;-84
2022/12/11 07:40:41;;;;;;;29.98;16.35;;;1.10;99.90;;;;;;5136908;27;20246;-82
2022/12/11 07:43:09;;;;;;;21.35;14.55;;;1.00;99.90;;;;;;5133023;27;20199;-82
2022/12/11 07:45:40;;;;;;;24.42;14.20;;;1.00;99.90;;;;;;5131641;27;20193;-82
2022/12/11 07:48:08;;;;;;;26.50;16.20;;;1.10;99.90;;;;;;5128327;27;20442;-82
2022/12/11 07:50:35;;;;;;;27.70;17.38;;;1.10;99.90;;;;;;5140503;27;20196;-81
2022/12/11 07:53:04;;;;;;;24.25;13.70;;;1.10;99.90;;;;;;5144990;27;20218;-82
2022/12/11 07:55:40;;;;;;;26.40;15.50;;;1.20;99.90;;;;;;5146170;27;20180;-80
2022/12/11 07:58:07;;;;;;;23.80;14.98;;;1.20;99.90;;;;;;5118250;28;20229;-82
2022/12/11 08:00:34;;;;;;;29.38;17.50;;;1.20;99.90;;;;;;5128811;27;20177;-82
2022/12/11 08:03:03;;;;;;;25.65;15.50;;;1.10;99.90;;;;;;5132806;27;20197;-82
2022/12/11 08:05:30;;;;;;;31.48;15.77;;;1.20;99.90;;;;;;5132940;27;20244;-81
2022/12/11 08:07:57;;;;;;;24.08;14.50;;;1.20;99.90;;;;;;5133919;27;20212;-81
2022/12/11 08:10:24;;;;;;;27.77;15.38;;;1.20;99.90;;;;;;5135107;27;20273;-83
2022/12/11 08:12:50;;;;;;;23.25;14.85;;;1.20;99.90;;;;;;5135689;27;20224;-82
2022/12/11 08:15:17;;;;;;;25.88;15.93;;;1.20;99.90;;;;;;5145761;27;20186;-82
2022/12/11 08:17:44;;;;;;;26.25;16.88;;;1.20;99.90;;;;;;5140576;27;20317;-84
2022/12/11 08:20:13;;;;;;;28.38;17.15;;;1.20;99.90;;;;;;5137750;27;20373;-84
2022/12/11 08:22:40;;;;;;;30.45;16.17;;;1.30;99.90;;;;;;5136227;27;20198;-82
2022/12/11 08:25:08;;;;;;;24.58;15.73;;;1.50;99.90;;;;;;5137376;27;20190;-82
2022/12/11 08:27:35;;;;;;;24.23;15.68;;;1.30;99.90;;;;;;5131874;27;20186;-83
2022/12/11 08:30:02;;;;;;;26.50;16.65;;;1.40;99.90;;;;;;5134521;27;20189;-82
2022/12/11 08:32:30;;;;;;;26.50;15.85;;;1.40;99.90;;;;;;5132471;27;20428;-86
2022/12/11 08:34:57;;;;;;;23.77;14.68;;;1.40;99.90;;;;;;5138562;27;20508;-85
2022/12/11 08:37:26;;;;;;;25.30;16.58;;;1.40;99.90;;;;;;5141016;27;20226;-81
2022/12/11 08:39:54;;;;;;;28.02;16.05;;;1.30;99.90;;;;;;5132474;27;20385;-83
2022/12/11 08:42:24;;;;;;;27.23;16.05;;;1.30;99.90;;;;;;5131152;27;20244;-84
2022/12/11 08:44:51;;;;;;;26.58;15.73;;;1.40;99.90;;;;;;5129827;27;20194;-83
2022/12/11 08:47:18;;;;;;;26.00;15.75;;;1.30;99.90;;;;;;5130309;27;20472;-82
2022/12/11 08:49:45;;;;;;;25.13;16.10;;;1.50;99.90;;;;;;5131669;27;20190;-82
2022/12/11 08:52:12;;;;;;;29.13;16.95;;;1.20;99.90;;;;;;5145080;27;20180;-82
2022/12/11 08:54:40;;;;;;;27.48;16.75;;;1.20;99.90;;;;;;5139869;27;20220;-83
2022/12/11 08:57:07;;;;;;;32.55;16.17;;;1.20;99.90;;;;;;5131160;28;20235;-81
2022/12/11 08:59:34;;;;;;;24.10;16.95;;;1.20;99.90;;;;;;5133203;27;20435;-78
2022/12/11 09:02:01;;;;;;;24.77;16.65;;;1.20;99.90;;;;;;5129936;27;20412;-76
2022/12/11 09:04:30;;;;;;;24.67;16.73;;;1.30;99.90;;;;;;5126007;27;20198;-77
2022/12/11 09:06:57;;;;;;;29.63;17.58;;;1.40;99.90;;;;;;5130779;27;20249;-77
2022/12/11 09:09:24;;;;;;;29.58;17.58;;;1.30;99.90;;;;;;5128421;28;20186;-78
2022/12/11 09:11:53;;;;;;;26.20;16.80;;;1.20;99.90;;;;;;5129680;27;20196;-76
2022/12/11 09:14:20;;;;;;;24.08;15.23;;;1.20;99.90;;;;;;5133398;27;20310;-77
2022/12/11 09:16:47;;;;;;;22.80;15.18;;;1.20;99.90;;;;;;5135008;27;20278;-79
2022/12/11 09:19:15;;;;;;;23.63;15.63;;;1.30;99.90;;;;;;5131750;27;20200;-76
2022/12/11 09:21:42;;;;;;;22.88;16.05;;;1.40;99.90;;;;;;5128155;27;20206;-75
2022/12/11 09:24:11;;;;;;;25.10;14.45;;;1.40;99.90;;;;;;5144609;27;20196;-77
2022/12/11 09:26:39;;;;;;;24.40;16.45;;;1.30;99.90;;;;;;5135482;27;20180;-80
2022/12/11 09:29:09;;;;;;;26.42;15.98;;;1.30;99.90;;;;;;5131056;27;20190;-82
2022/12/11 09:31:36;;;;;;;27.50;16.17;;;1.30;99.90;;;;;;5131320;27;20260;-77
2022/12/11 09:34:06;;;;;;;27.20;16.13;;;1.40;99.90;;;;;;5139078;27;20219;-80
2022/12/11 09:36:33;;;;;;;26.77;15.63;;;1.40;99.90;;;;;;5134880;27;20420;-81
2022/12/11 09:39:01;;;;;;;23.10;14.40;;;1.30;99.90;;;;;;5133356;27;20191;-80
2022/12/11 09:41:39;;;;;;;27.77;15.77;;;1.30;99.90;;;;;;5130430;27;20236;-77
2022/12/11 09:44:19;;;;;;;29.77;17.08;;;1.40;99.90;;;;;;5138082;27;20205;-80
2022/12/11 09:46:48;;;;;;;27.23;16.00;;;1.40;99.90;;;;;;5117863;27;20404;-81
2022/12/11 09:49:24;;;;;;;24.52;15.80;;;1.50;99.90;;;;;;5121329;27;20200;-80
2022/12/11 09:52:00;;;;;;;28.27;17.25;;;1.40;99.90;;;;;;5123319;27;20229;-79
2022/12/11 09:54:27;;;;;;;31.92;18.75;;;1.50;99.90;;;;;;5130222;27;20439;-78
2022/12/11 09:57:03;;;;;;;28.02;16.27;;;1.60;99.90;;;;;;5133127;27;20246;-77
2022/12/11 09:59:41;;;;;;;26.17;16.40;;;1.60;99.90;;;;;;5126084;27;20178;-78
2022/12/11 10:02:25;;;;;;;25.98;16.17;;;1.70;99.90;;;;;;5115509;28;20195;-82
2022/12/11 10:05:00;;;;;;;24.42;15.98;;;1.80;99.90;;;;;;5117148;27;20267;-80
2022/12/11 10:07:39;;;;;;;28.08;17.05;;;1.70;99.90;;;;;;5117748;28;21065;-80
2022/12/11 10:10:23;;;;;;;27.70;17.98;;;1.50;99.90;;;;;;5118808;28;20196;-81
2022/12/11 10:13:01;;;;;;;23.60;16.33;;;1.50;99.90;;;;;;5116537;28;20194;-78
2022/12/11 10:15:41;;;;;;;31.90;16.45;;;1.50;99.90;;;;;;5115911;28;20207;-77
2022/12/11 10:18:13;;;;;;;26.77;15.82;;;1.50;99.90;;;;;;5116133;28;20364;-77
2022/12/11 10:20:42;;;;;;;21.02;16.75;;;1.60;99.90;;;;;;5116495;28;20260;-78
2022/12/11 10:23:16;;;;;;;26.85;16.40;;;1.60;99.90;;;;;;5116612;28;20201;-79
2022/12/11 10:25:49;;;;;;;27.90;16.38;;;1.50;99.90;;;;;;5116817;28;20197;-79
2022/12/11 10:28:19;;;;;;;26.25;18.27;;;1.50;99.90;;;;;;5115085;28;20468;-77
2022/12/11 10:30:54;;;;;;;39.25;19.75;;;1.40;99.90;;;;;;5116578;28;20287;-76
2022/12/11 10:33:27;;;;;;;33.75;16.50;;;1.50;99.90;;;;;;5117117;28;20316;-82
2022/12/11 10:35:56;;;;;;;26.02;17.05;;;1.50;99.90;;;;;;5116150;28;20253;-70
2022/12/11 10:38:28;;;;;;;26.08;15.77;;;1.50;99.90;;;;;;5114414;28;20255;-71
2022/12/11 10:40:58;;;;;;;30.05;18.15;;;1.60;99.90;;;;;;5112404;28;20190;-69
2022/12/11 10:43:35;;;;;;;29.67;16.60;;;1.50;99.90;;;;;;5114614;28;20209;-70
2022/12/11 10:46:05;;;;;;;30.95;16.85;;;1.60;99.90;;;;;;5114337;28;20289;-70
2022/12/11 10:48:31;;;;;;;27.25;18.00;;;1.50;99.90;;;;;;5114024;28;20222;-69
2022/12/11 10:51:02;;;;;;;32.55;17.80;;;1.50;99.90;;;;;;5112827;28;20268;-71
2022/12/11 10:53:31;;;;;;;25.80;15.85;;;1.50;99.90;;;;;;5113765;28;20388;-71
2022/12/11 10:55:58;;;;;;;21.67;14.80;;;1.50;99.90;;;;;;5113582;28;20185;-70
2022/12/11 10:58:28;;;;;;;34.42;19.08;;;1.50;99.90;;;;;;5117173;27;20301;-69
2022/12/11 11:01:07;;;;;;;29.38;16.40;;;1.60;99.90;;;;;;5117057;27;20405;-71
2022/12/11 11:03:38;;;;;;;28.35;15.45;;;1.60;99.90;;;;;;5116854;27;20247;-71
2022/12/11 11:06:13;;;;;;;31.33;18.05;;;1.70;99.90;;;;;;5117553;28;20202;-70
2022/12/11 11:08:43;;;;;;;24.70;16.48;;;1.70;99.90;;;;;;5116490;27;20196;-69
2022/12/11 11:11:27;;;;;;;29.75;17.73;;;1.70;99.90;;;;;;5116271;27;20186;-68
2022/12/11 11:14:05;;;;;;;33.17;20.33;;;1.80;99.90;;;;;;5116679;28;20351;-71
2022/12/11 11:16:37;;;;;;;31.08;17.70;;;1.80;99.90;;;;;;5115254;27;20316;-71
2022/12/11 11:19:04;;;;;;;27.45;16.92;;;1.90;99.90;;;;;;5116321;28;20186;-69
2022/12/11 11:21:34;;;;;;;26.15;15.38;;;2.00;99.90;;;;;;5116252;28;20185;-70
2022/12/11 11:24:01;;;;;;;28.70;16.98;;;2.00;99.90;;;;;;5116424;27;20231;-71
2022/12/11 11:26:32;;;;;;;31.05;19.40;;;1.90;99.90;;;;;;5117072;28;20536;-71
2022/12/11 11:28:59;;;;;;;29.73;18.65;;;1.90;99.90;;;;;;5116903;28;20186;-70
2022/12/11 11:31:33;;;;;;;48.25;19.52;;;1.90;99.90;;;;;;5115522;28;20224;-70
2022/12/11 11:34:05;;;;;;;31.65;19.20;;;2.00;99.90;;;;;;5116697;27;20365;-71
2022/12/11 11:36:33;;;;;;;32.65;19.73;;;1.90;99.90;;;;;;5117209;28;20222;-69
2022/12/11 11:39:19;;;;;;;28.08;17.55;;;1.90;99.90;;;;;;5117231;28;20180;-71
2022/12/11 11:41:52;;;;;;;30.70;18.33;;;2.00;99.90;;;;;;5116329;28;20193;-71
2022/12/11 11:44:25;;;;;;;31.17;17.33;;;2.00;99.90;;;;;;5117452;28;20229;-72
2022/12/11 11:46:58;;;;;;;29.88;16.58;;;2.00;99.90;;;;;;5116974;27;20225;-70
2022/12/11 11:49:44;;;;;;;42.83;19.30;;;2.00;99.90;;;;;;5117371;27;20292;-72
2022/12/11 11:52:18;;;;;;;38.53;18.55;;;2.00;99.90;;;;;;5115971;28;20217;-71
2022/12/11 11:54:50;;;;;;;37.90;18.80;;;2.00;99.90;;;;;;5117078;27;20336;-71
2022/12/11 11:57:23;;;;;;;34.15;18.95;;;2.00;99.90;;;;;;5116796;28;20198;-70
2022/12/11 11:59:54;;;;;;;33.05;18.92;;;2.00;99.90;;;;;;5115837;28;20197;-70
2022/12/11 12:02:21;;;;;;;31.08;18.35;;;1.90;99.90;;;;;;5116688;27;20297;-70
2022/12/11 12:04:50;;;;;;;32.35;16.75;;;1.90;99.90;;;;;;5116645;28;20260;-70
2022/12/11 12:07:33;;;;;;;31.60;17.48;;;2.10;99.90;;;;;;5116715;27;20201;-71
2022/12/11 12:10:11;;;;;;;34.50;20.05;;;2.10;99.90;;;;;;5114762;27;20255;-72
2022/12/11 12:12:46;;;;;;;35.25;18.80;;;2.10;99.90;;;;;;5115890;28;20370;-68
2022/12/11 12:15:30;;;;;;;37.83;21.15;;;2.20;99.90;;;;;;5115916;28;20260;-70
2022/12/11 12:18:03;;;;;;;31.27;18.02;;;2.30;99.90;;;;;;5114368;27;20198;-71
2022/12/11 12:20:42;;;;;;;31.30;18.95;;;2.20;99.90;;;;;;5115233;28;20408;-70
2022/12/11 12:23:30;;;;;;;37.33;18.40;;;1.90;99.90;;;;;;5115737;28;20237;-70
2022/12/11 12:26:04;;;;;;;29.83;17.33;;;2.20;99.90;;;;;;5115041;27;20277;-70
2022/12/11 12:28:41;;;;;;;35.25;18.23;;;2.20;99.90;;;;;;5114943;27;20205;-69
2022/12/11 12:31:23;;;;;;;30.73;18.77;;;2.10;99.90;;;;;;5114967;27;20213;-70
2022/12/11 12:34:01;;;;;;;32.25;19.50;;;2.10;99.90;;;;;;5114868;28;20227;-70
2022/12/11 12:36:35;;;;;;;25.75;17.27;;;2.00;99.90;;;;;;5114402;28;20209;-69
2022/12/11 12:39:06;;;;;;;28.10;17.95;;;2.00;99.90;;;;;;5114262;28;20265;-69
2022/12/11 12:41:43;;;;;;;26.02;17.02;;;2.00;99.90;;;;;;5114398;28;20221;-70
2022/12/11 12:44:15;;;;;;;40.08;20.50;;;2.00;99.90;;;;;;5115407;27;20219;-73
2022/12/11 12:46:53;;;;;;;30.05;18.90;;;2.00;99.90;;;;;;5115927;28;20213;-69
2022/12/11 12:49:34;;;;;;;29.45;17.73;;;2.10;99.90;;;;;;5115398;28;20185;-72
2022/12/11 12:52:04;;;;;;;31.88;19.17;;;2.20;99.90;;;;;;5114841;28;20753;-72
2022/12/11 12:54:33;;;;;;;32.35;19.90;;;2.30;99.90;;;;;;5115204;27;20479;-70
2022/12/11 12:57:03;;;;;;;34.47;19.40;;;2.40;99.90;;;;;;5115149;27;20210;-70
2022/12/11 12:59:30;;;;;;;36.88;20.13;;;2.20;99.90;;;;;;5114073;27;20245;-67